Santa Cruz do Rio Pardo, Brazil
Current Conditions -  °F | °C
As of 12:00 PM on Friday 24 Oct 2014 (Local Time) from SBBU Reporting Station
Clear Clear  
Wind Chill: 86°   Ceiling: Unl
Heat Index: 92°   Visibility: 6mi
Dew Point: 72°   Wind: 7mph
Humidity: 62%   Direction: 30°NNE
Pressure: 30.03"   Gusts: NA
Location:  22.9°S, 49.63°W
Report Text: SBBU 241400Z 03006KT CAVOK 30/22 Q1017
Loading
Personal Weather Stations






























Interactive Weather Map
Tropical Storm Tracking
New forecast layout! Learn more

10-Day Weather Forecast

Advertisements
Track Severe Weather on mobile